createdAt,value
2023-05-05T00:00:32.337Z,11.50
2023-05-05T00:03:01.688Z,11.50
2023-05-05T00:05:32.761Z,11.50
2023-05-05T00:08:01.988Z,11.50
2023-05-05T00:10:31.321Z,11.40
2023-05-05T00:13:00.656Z,11.40
2023-05-05T00:15:29.971Z,11.40
2023-05-05T00:17:59.266Z,11.50
2023-05-05T00:20:28.519Z,11.50
2023-05-05T00:22:59.196Z,11.50
2023-05-05T00:25:29.424Z,11.50
2023-05-05T00:27:58.755Z,11.40
2023-05-05T00:30:28.759Z,11.40
2023-05-05T00:32:58.008Z,11.40
2023-05-05T00:35:28.034Z,11.40
2023-05-05T00:37:58.946Z,11.30
2023-05-05T00:40:28.225Z,11.30
2023-05-05T00:42:57.335Z,11.30
2023-05-05T00:45:28.524Z,11.40
2023-05-05T00:48:00.467Z,11.40
2023-05-05T00:50:31.418Z,11.30
2023-05-05T00:53:04.701Z,11.30
2023-05-05T00:55:35.063Z,11.40
2023-05-05T00:58:05.447Z,11.40
2023-05-05T01:00:35.507Z,11.30
2023-05-05T01:03:05.505Z,11.30
2023-05-05T01:05:47.479Z,11.30
2023-05-05T01:08:30.894Z,11.30
2023-05-05T01:11:04.921Z,11.30
2023-05-05T01:13:42.959Z,11.40
2023-05-05T01:16:19.338Z,11.30
2023-05-05T01:18:55.852Z,11.30
2023-05-05T01:21:32.050Z,11.30
2023-05-05T01:24:41.044Z,11.30
2023-05-05T01:27:31.753Z,11.20
2023-05-05T01:30:40.604Z,11.10
2023-05-05T01:33:15.975Z,11.20
2023-05-05T01:35:48.704Z,11.10
2023-05-05T01:38:21.031Z,11.10
2023-05-05T01:40:54.288Z,11.10
2023-05-05T01:43:27.594Z,11.10
2023-05-05T01:45:58.807Z,11.10
2023-05-05T01:48:30.364Z,11.10
2023-05-05T01:51:00.810Z,11.20
2023-05-05T01:53:30.932Z,11.20
2023-05-05T01:56:00.806Z,11.20
2023-05-05T01:58:31.810Z,11.20
2023-05-05T02:01:02.125Z,11.20
2023-05-05T02:03:34.350Z,11.20
2023-05-05T02:06:05.313Z,11.20
2023-05-05T02:08:36.345Z,11.10
2023-05-05T02:11:06.196Z,11.10
2023-05-05T02:13:37.997Z,11.10
2023-05-05T02:16:08.695Z,11.10
2023-05-05T02:18:39.692Z,11.20
2023-05-05T02:21:09.231Z,11.10
2023-05-05T02:23:38.475Z,11.10
2023-05-05T02:26:10.813Z,11.00
2023-05-05T02:28:46.968Z,11.00
2023-05-05T02:31:18.778Z,11.00
2023-05-05T02:33:51.086Z,11.10
2023-05-05T02:36:23.415Z,11.10
2023-05-05T02:39:00.596Z,11.10
2023-05-05T02:41:34.895Z,11.20
2023-05-05T02:44:09.859Z,11.20
2023-05-05T02:46:40.713Z,11.20
2023-05-05T02:49:11.438Z,11.20
2023-05-05T02:51:42.063Z,11.20
2023-05-05T02:54:20.877Z,11.20
2023-05-05T02:56:52.196Z,11.20
2023-05-05T02:59:36.882Z,11.10
2023-05-05T03:02:18.396Z,11.10
2023-05-05T03:04:51.912Z,11.10
2023-05-05T03:07:29.145Z,11.10
2023-05-05T03:10:04.898Z,11.10
2023-05-05T03:12:41.312Z,11.00
2023-05-05T03:15:19.869Z,11.10
2023-05-05T03:17:50.201Z,11.10
2023-05-05T03:20:21.808Z,11.20
2023-05-05T03:22:53.246Z,11.30
2023-05-05T03:25:22.657Z,11.30
2023-05-05T03:27:51.955Z,11.30
2023-05-05T03:30:23.781Z,11.50
2023-05-05T03:32:54.428Z,11.50
2023-05-05T03:35:25.598Z,11.60
2023-05-05T03:37:55.710Z,11.70
2023-05-05T03:40:36.247Z,11.80
2023-05-05T03:43:13.233Z,11.80
2023-05-05T03:45:42.814Z,11.80
2023-05-05T03:48:12.363Z,11.80
2023-05-05T03:50:46.541Z,11.90
2023-05-05T03:53:17.571Z,11.90
2023-05-05T03:55:47.209Z,11.80
2023-05-05T03:58:16.692Z,11.90
2023-05-05T04:00:45.941Z,12.00
2023-05-05T04:03:16.589Z,12.10
2023-05-05T04:05:47.326Z,12.20
2023-05-05T04:08:16.989Z,12.40
2023-05-05T04:10:46.115Z,12.60
2023-05-05T04:13:15.688Z,13.10
2023-05-05T04:15:47.367Z,14.20
2023-05-05T04:18:18.173Z,14.50
2023-05-05T04:20:49.294Z,14.60
2023-05-05T04:23:19.145Z,14.50
2023-05-05T04:25:49.770Z,14.60
2023-05-05T04:28:21.066Z,14.60
2023-05-05T04:30:51.483Z,14.50
2023-05-05T04:33:20.928Z,14.40
2023-05-05T04:35:53.272Z,13.50
2023-05-05T04:38:22.730Z,12.70
2023-05-05T04:40:52.499Z,12.20
2023-05-05T04:43:21.748Z,12.20
2023-05-05T04:45:55.032Z,12.40
2023-05-05T04:48:27.337Z,12.70
2023-05-05T04:50:58.733Z,12.90
2023-05-05T04:53:28.135Z,13.40
2023-05-05T04:55:57.462Z,13.60
2023-05-05T04:58:26.951Z,13.70
2023-05-05T05:00:56.217Z,13.80
2023-05-05T05:03:25.732Z,14.00
2023-05-05T05:05:55.440Z,14.20
2023-05-05T05:08:26.260Z,14.50
2023-05-05T05:10:55.446Z,14.00
2023-05-05T05:13:25.085Z,13.60
2023-05-05T05:15:54.911Z,13.60
2023-05-05T05:18:24.199Z,13.50
2023-05-05T05:20:54.054Z,13.30
2023-05-05T05:23:23.425Z,13.10
2023-05-05T05:25:54.534Z,13.20
2023-05-05T05:28:24.880Z,13.30
2023-05-05T05:30:59.145Z,13.50
2023-05-05T05:33:28.527Z,13.90
2023-05-05T05:35:59.704Z,14.30
2023-05-05T05:38:29.666Z,14.30
2023-05-05T05:41:07.978Z,14.40
2023-05-05T05:43:39.137Z,14.80
2023-05-05T05:46:09.290Z,15.50
2023-05-05T05:48:41.279Z,16.40
2023-05-05T05:51:10.866Z,17.60
2023-05-05T05:53:40.710Z,19.10
2023-05-05T05:56:12.912Z,20.20
2023-05-05T05:58:42.587Z,20.60
2023-05-05T06:01:12.529Z,20.80
2023-05-05T06:03:41.823Z,21.40
2023-05-05T06:06:11.224Z,21.80
2023-05-05T06:08:40.435Z,22.00
2023-05-05T06:11:09.770Z,21.80
2023-05-05T06:13:40.618Z,21.60
2023-05-05T06:16:10.268Z,21.50
2023-05-05T06:18:41.632Z,22.10
2023-05-05T06:21:11.045Z,21.20
2023-05-05T06:23:40.365Z,20.40
2023-05-05T06:26:09.732Z,20.00
2023-05-05T06:28:41.654Z,19.60
2023-05-05T06:31:13.093Z,19.20
2023-05-05T06:33:42.521Z,19.30
2023-05-05T06:36:12.048Z,19.40
2023-05-05T06:38:41.622Z,19.30
2023-05-05T06:41:11.043Z,20.00
2023-05-05T06:43:43.253Z,21.10
2023-05-05T06:46:14.940Z,21.80
2023-05-05T06:48:44.205Z,22.10
2023-05-05T06:51:13.696Z,22.90
2023-05-05T06:53:42.936Z,22.40
2023-05-05T06:56:12.801Z,21.40
2023-05-05T06:58:43.632Z,21.10
2023-05-05T07:01:13.076Z,20.90
2023-05-05T07:03:42.491Z,21.40
2023-05-05T07:06:11.916Z,20.50
2023-05-05T07:08:41.265Z,20.50
2023-05-05T07:11:10.579Z,20.60
2023-05-05T07:13:39.745Z,19.90
2023-05-05T07:16:10.503Z,20.50
2023-05-05T07:18:39.851Z,20.40
2023-05-05T07:21:09.022Z,20.20
2023-05-05T07:23:38.343Z,20.10
2023-05-05T07:26:07.629Z,20.00
2023-05-05T07:28:36.873Z,19.80
2023-05-05T07:31:06.345Z,19.90
2023-05-05T07:33:37.090Z,20.60
2023-05-05T07:36:07.053Z,20.80
2023-05-05T07:38:36.400Z,20.00
2023-05-05T07:41:05.715Z,20.20
2023-05-05T07:43:34.913Z,20.70
2023-05-05T07:46:04.235Z,20.50
2023-05-05T07:48:33.582Z,20.30
2023-05-05T07:51:04.452Z,19.80
2023-05-05T07:53:33.675Z,19.70
2023-05-05T07:56:02.927Z,19.50
2023-05-05T07:58:32.172Z,19.90
2023-05-05T08:01:02.721Z,20.90
2023-05-05T08:03:32.067Z,21.20
2023-05-05T08:06:10.300Z,21.60
2023-05-05T08:08:39.668Z,21.50
2023-05-05T08:11:08.896Z,21.80
2023-05-05T08:13:39.380Z,21.10
2023-05-05T08:16:09.193Z,20.30
2023-05-05T08:18:38.867Z,20.30
2023-05-05T08:21:10.163Z,19.70
2023-05-05T08:23:40.364Z,19.70
2023-05-05T08:26:09.894Z,19.80
2023-05-05T08:28:39.178Z,19.60
2023-05-05T08:31:09.097Z,19.50
2023-05-05T08:33:38.401Z,19.70
2023-05-05T08:36:09.960Z,19.70
2023-05-05T08:38:39.045Z,19.60
2023-05-05T08:41:11.368Z,19.90
2023-05-05T08:43:40.550Z,19.60
2023-05-05T08:46:12.686Z,19.40
2023-05-05T08:48:43.827Z,19.30
2023-05-05T08:51:19.736Z,19.10
2023-05-05T08:53:57.900Z,18.90
2023-05-05T08:56:28.896Z,19.10
2023-05-05T08:58:59.226Z,19.20
2023-05-05T09:01:28.774Z,19.30
2023-05-05T09:04:00.186Z,19.40
2023-05-05T09:06:32.585Z,19.80
2023-05-05T09:09:02.893Z,19.80
2023-05-05T09:11:32.909Z,19.80
2023-05-05T09:14:03.353Z,19.60
2023-05-05T09:16:32.668Z,19.90
2023-05-05T09:19:06.051Z,20.60
2023-05-05T09:21:36.765Z,20.90
2023-05-05T09:24:10.285Z,21.20
2023-05-05T09:26:41.135Z,20.90
2023-05-05T09:29:10.597Z,20.00
2023-05-05T09:31:40.180Z,19.70
2023-05-05T09:34:17.523Z,19.20
2023-05-05T09:36:49.439Z,19.20
2023-05-05T09:39:20.443Z,19.10
2023-05-05T09:41:49.796Z,18.60
2023-05-05T09:44:33.969Z,18.50
2023-05-05T09:47:07.164Z,18.70
2023-05-05T09:49:41.401Z,18.60
2023-05-05T09:52:19.337Z,18.40
2023-05-05T09:54:56.014Z,18.20
2023-05-05T09:57:30.152Z,18.30
2023-05-05T10:00:01.437Z,18.70
2023-05-05T10:02:37.296Z,18.90
2023-05-05T10:05:09.093Z,18.70
2023-05-05T10:07:41.355Z,18.70
2023-05-05T10:10:12.149Z,18.90
2023-05-05T10:12:42.491Z,18.90
2023-05-05T10:15:12.798Z,18.70
2023-05-05T10:18:05.198Z,18.30
2023-05-05T10:20:37.875Z,18.20
2023-05-05T10:23:11.910Z,18.10
2023-05-05T10:25:44.057Z,17.70
2023-05-05T10:28:24.719Z,17.60
2023-05-05T10:30:58.309Z,17.60
2023-05-05T10:33:35.497Z,17.20
2023-05-05T10:36:07.919Z,17.20
2023-05-05T10:38:39.711Z,17.20
2023-05-05T10:41:11.330Z,17.30
2023-05-05T10:43:42.048Z,17.30
2023-05-05T10:46:11.904Z,16.90
2023-05-05T10:48:46.519Z,16.90
2023-05-05T10:51:39.524Z,16.80
2023-05-05T10:54:18.300Z,16.90
2023-05-05T10:56:49.309Z,16.90
2023-05-05T10:59:47.828Z,17.00
2023-05-05T11:02:21.645Z,17.10
2023-05-05T11:05:22.592Z,17.40
2023-05-05T11:07:53.277Z,17.50
2023-05-05T11:10:24.032Z,17.50
2023-05-05T11:13:23.372Z,17.30
2023-05-05T11:15:54.427Z,17.30
2023-05-05T11:18:38.237Z,17.20
2023-05-05T11:21:15.809Z,17.10
2023-05-05T11:23:46.895Z,16.90
2023-05-05T11:26:18.693Z,16.90
2023-05-05T11:28:59.917Z,16.80
2023-05-05T11:31:30.810Z,16.80
2023-05-05T11:34:31.326Z,16.80
2023-05-05T11:37:04.135Z,16.90
2023-05-05T11:39:51.456Z,16.70
2023-05-05T11:42:27.450Z,16.80
2023-05-05T11:44:56.941Z,16.80
2023-05-05T11:47:35.318Z,16.70
2023-05-05T11:50:23.438Z,16.50
2023-05-05T11:52:54.364Z,16.70
2023-05-05T11:55:24.324Z,16.90
2023-05-05T11:57:55.115Z,17.10
2023-05-05T12:00:34.772Z,16.90
2023-05-05T12:03:04.129Z,16.80
2023-05-05T12:05:36.307Z,16.50
2023-05-05T12:08:06.801Z,16.30
2023-05-05T12:10:36.084Z,16.40
2023-05-05T12:13:06.630Z,16.50
2023-05-05T12:15:36.132Z,16.50
2023-05-05T12:18:06.690Z,16.40
2023-05-05T12:20:36.869Z,16.40
2023-05-05T12:23:06.290Z,16.40
2023-05-05T12:25:40.671Z,16.60
2023-05-05T12:28:11.408Z,16.70
2023-05-05T12:30:40.735Z,16.80
2023-05-05T12:33:10.498Z,16.90
2023-05-05T12:35:40.106Z,16.70
2023-05-05T12:38:09.493Z,16.40
2023-05-05T12:40:48.950Z,16.40
2023-05-05T12:43:31.439Z,16.30
2023-05-05T12:46:05.352Z,16.10
2023-05-05T12:48:34.860Z,16.20
2023-05-05T12:51:18.395Z,16.30
2023-05-05T12:53:48.754Z,16.40
2023-05-05T12:56:48.601Z,16.00
2023-05-05T12:59:32.407Z,15.90
2023-05-05T13:02:02.717Z,15.90
2023-05-05T13:04:31.967Z,15.80
2023-05-05T13:07:12.198Z,15.70
2023-05-05T13:09:41.688Z,15.60
2023-05-05T13:12:12.362Z,15.60
2023-05-05T13:14:43.647Z,15.70
2023-05-05T13:17:13.640Z,15.70
2023-05-05T13:19:47.349Z,15.70
2023-05-05T13:22:16.545Z,15.80
2023-05-05T13:25:07.044Z,15.80
2023-05-05T13:27:35.664Z,15.80
2023-05-05T13:30:07.491Z,15.80
2023-05-05T13:32:36.900Z,15.60
2023-05-05T13:35:06.862Z,15.60
2023-05-05T13:37:36.381Z,15.70
2023-05-05T13:40:06.309Z,15.80
2023-05-05T13:42:35.704Z,15.70
2023-05-05T13:45:07.295Z,15.50
2023-05-05T13:47:36.650Z,15.50
2023-05-05T13:50:06.707Z,15.40
2023-05-05T13:52:35.897Z,15.20
2023-05-05T13:55:05.715Z,15.40
2023-05-05T13:57:35.032Z,15.60
2023-05-05T14:00:07.043Z,15.80
2023-05-05T14:02:36.510Z,15.90
2023-05-05T14:05:06.617Z,15.70
2023-05-05T14:07:35.930Z,15.40
2023-05-05T14:10:05.220Z,15.20
2023-05-05T14:12:34.813Z,15.00
2023-05-05T14:15:05.719Z,15.10
2023-05-05T14:17:35.158Z,15.10
2023-05-05T14:20:04.673Z,15.00
2023-05-05T14:22:34.253Z,15.00
2023-05-05T14:25:03.575Z,15.10
2023-05-05T14:27:32.886Z,15.20
2023-05-05T14:30:02.189Z,15.30
2023-05-05T14:32:32.978Z,15.30
2023-05-05T14:35:02.255Z,15.10
2023-05-05T14:37:31.403Z,15.00
2023-05-05T14:40:01.574Z,15.10
2023-05-05T14:42:31.665Z,15.20
2023-05-05T14:45:00.864Z,14.90
2023-05-05T14:47:31.548Z,14.80
2023-05-05T14:50:00.800Z,14.80
2023-05-05T14:52:29.989Z,14.90
2023-05-05T14:54:59.227Z,15.00
2023-05-05T14:57:28.557Z,14.90
2023-05-05T14:59:57.791Z,15.00
2023-05-05T15:02:27.117Z,15.10
2023-05-05T15:04:57.772Z,15.20
2023-05-05T15:07:28.715Z,15.40
2023-05-05T15:09:57.885Z,15.30
2023-05-05T15:12:27.308Z,15.20
2023-05-05T15:14:56.696Z,15.00
2023-05-05T15:17:26.296Z,14.80
2023-05-05T15:19:57.004Z,14.80
2023-05-05T15:22:26.369Z,14.80
2023-05-05T15:24:55.702Z,15.10
2023-05-05T15:27:24.876Z,15.00
2023-05-05T15:29:54.852Z,15.10
2023-05-05T15:32:24.131Z,15.10
2023-05-05T15:34:53.342Z,15.00
2023-05-05T15:37:24.056Z,14.90
2023-05-05T15:39:53.542Z,14.80
2023-05-05T15:42:22.812Z,14.50
2023-05-05T15:44:52.546Z,14.40
2023-05-05T15:47:21.697Z,14.40
2023-05-05T15:49:50.853Z,14.50
2023-05-05T15:52:20.272Z,14.50
2023-05-05T15:54:51.074Z,14.40
2023-05-05T15:57:20.267Z,14.30
2023-05-05T15:59:52.683Z,14.30
2023-05-05T16:02:22.296Z,14.20
2023-05-05T16:04:51.944Z,14.20
2023-05-05T16:07:21.387Z,14.10
2023-05-05T16:09:52.716Z,14.10
2023-05-05T16:12:22.457Z,14.20
2023-05-05T16:14:51.633Z,14.30
2023-05-05T16:17:22.346Z,14.20
2023-05-05T16:19:52.033Z,14.20
2023-05-05T16:22:21.752Z,14.10
2023-05-05T16:24:52.388Z,14.00
2023-05-05T16:27:21.987Z,14.00
2023-05-05T16:29:51.299Z,14.00
2023-05-05T16:32:20.407Z,14.20
2023-05-05T16:34:49.567Z,14.20
2023-05-05T16:37:19.032Z,14.20
2023-05-05T16:39:48.159Z,14.10
2023-05-05T16:42:19.507Z,14.00
2023-05-05T16:44:48.683Z,14.10
2023-05-05T16:47:17.886Z,14.20
2023-05-05T16:49:47.313Z,14.00
2023-05-05T16:52:16.688Z,13.90
2023-05-05T16:54:45.911Z,13.80
2023-05-05T16:57:15.181Z,13.80
2023-05-05T16:59:45.818Z,13.80
2023-05-05T17:02:15.201Z,13.70
2023-05-05T17:04:44.413Z,13.60
2023-05-05T17:07:13.529Z,13.60
2023-05-05T17:09:42.740Z,13.50
2023-05-05T17:12:12.136Z,13.40
2023-05-05T17:14:41.752Z,13.30
2023-05-05T17:17:12.547Z,13.30
2023-05-05T17:19:42.810Z,13.30
2023-05-05T17:22:12.190Z,13.30
2023-05-05T17:24:41.479Z,13.20
2023-05-05T17:27:10.912Z,13.20
2023-05-05T17:29:41.598Z,13.20
2023-05-05T17:32:12.284Z,13.20
2023-05-05T17:34:41.675Z,13.10
2023-05-05T17:37:11.316Z,13.10
2023-05-05T17:39:40.481Z,13.10
2023-05-05T17:42:09.631Z,13.00
2023-05-05T17:44:39.061Z,13.00
2023-05-05T17:47:08.766Z,13.00
2023-05-05T17:49:39.288Z,12.90
2023-05-05T17:52:08.497Z,12.90
2023-05-05T17:54:37.851Z,12.80
2023-05-05T17:57:07.090Z,12.70
2023-05-05T17:59:36.489Z,12.60
2023-05-05T18:02:05.752Z,12.60
2023-05-05T18:04:35.147Z,12.50
2023-05-05T18:07:06.212Z,12.50
2023-05-05T18:09:35.475Z,12.40
2023-05-05T18:12:05.294Z,12.40
2023-05-05T18:14:34.711Z,12.40
2023-05-05T18:17:05.035Z,12.40
2023-05-05T18:19:34.559Z,12.30
2023-05-05T18:22:05.478Z,12.20
2023-05-05T18:24:34.933Z,12.10
2023-05-05T18:27:06.655Z,12.20
2023-05-05T18:29:36.901Z,12.10
2023-05-05T18:32:07.774Z,12.10
2023-05-05T18:34:37.463Z,12.10
2023-05-05T18:37:08.766Z,12.10
2023-05-05T18:39:38.649Z,12.00
2023-05-05T18:42:09.332Z,11.90
2023-05-05T18:44:39.110Z,12.00
2023-05-05T18:47:09.286Z,11.90
2023-05-05T18:49:39.161Z,11.90
2023-05-05T18:52:10.453Z,11.90
2023-05-05T18:54:40.336Z,11.80
2023-05-05T18:57:10.068Z,11.80
2023-05-05T18:59:40.788Z,11.80
2023-05-05T19:02:10.801Z,11.80
2023-05-05T19:04:41.713Z,11.70
2023-05-05T19:07:16.327Z,11.70
2023-05-05T19:09:53.853Z,11.60
2023-05-05T19:12:23.630Z,11.60
2023-05-05T19:14:53.335Z,11.60
2023-05-05T19:17:23.073Z,11.60
2023-05-05T19:19:52.813Z,11.60
2023-05-05T19:22:24.354Z,11.60
2023-05-05T19:24:54.205Z,11.50
2023-05-05T19:27:24.146Z,11.40
2023-05-05T19:29:54.109Z,11.40
2023-05-05T19:32:24.058Z,11.40
2023-05-05T19:34:55.275Z,11.40
2023-05-05T19:37:26.845Z,11.30
2023-05-05T19:39:56.844Z,11.30
2023-05-05T19:42:26.745Z,11.30
2023-05-05T19:44:56.379Z,11.30
2023-05-05T19:47:26.392Z,11.20
2023-05-05T19:49:56.254Z,11.20
2023-05-05T19:52:27.777Z,11.20
2023-05-05T19:54:57.635Z,11.20
2023-05-05T19:57:27.901Z,11.20
2023-05-05T19:59:57.751Z,11.20
2023-05-05T20:02:28.783Z,11.20
2023-05-05T20:04:59.171Z,11.20
2023-05-05T20:07:30.574Z,11.20
2023-05-05T20:10:01.030Z,11.20
2023-05-05T20:12:31.258Z,11.10
2023-05-05T20:15:00.999Z,11.10
2023-05-05T20:17:30.988Z,11.10
2023-05-05T20:20:00.746Z,11.10
2023-05-05T20:22:32.296Z,11.10
2023-05-05T20:25:02.114Z,11.10
2023-05-05T20:27:32.965Z,11.10
2023-05-05T20:30:04.601Z,11.10
2023-05-05T20:32:34.546Z,11.00
2023-05-05T20:35:05.920Z,11.00
2023-05-05T20:37:36.936Z,10.90
2023-05-05T20:40:06.932Z,10.90
2023-05-05T20:42:37.247Z,10.90
2023-05-05T20:45:07.520Z,10.80
2023-05-05T20:47:37.098Z,10.80
2023-05-05T20:50:07.788Z,10.80
2023-05-05T20:52:38.923Z,10.70
2023-05-05T20:55:08.851Z,10.80
2023-05-05T20:57:38.016Z,10.70
2023-05-05T21:00:08.549Z,10.70
2023-05-05T21:02:38.000Z,10.60
2023-05-05T21:05:08.164Z,10.70
2023-05-05T21:07:38.823Z,10.70
2023-05-05T21:10:09.496Z,10.60
2023-05-05T21:12:39.620Z,10.50
2023-05-05T21:15:10.181Z,10.50
2023-05-05T21:17:39.698Z,10.50
2023-05-05T21:20:10.466Z,10.50
2023-05-05T21:22:41.335Z,10.50
2023-05-05T21:25:15.784Z,10.60
2023-05-05T21:27:45.322Z,10.50
2023-05-05T21:30:15.133Z,10.50
2023-05-05T21:32:44.837Z,10.50
2023-05-05T21:35:14.275Z,10.40
2023-05-05T21:37:45.310Z,10.50
2023-05-05T21:40:16.513Z,10.50
2023-05-05T21:42:45.813Z,10.50
2023-05-05T21:45:15.145Z,10.50
2023-05-05T21:47:44.684Z,10.50
2023-05-05T21:50:14.098Z,10.50
2023-05-05T21:52:44.881Z,10.50
2023-05-05T21:55:14.212Z,10.40
2023-05-05T21:57:43.760Z,10.40
2023-05-05T22:00:16.979Z,10.40
2023-05-05T22:02:46.705Z,10.40
2023-05-05T22:05:16.131Z,10.40
2023-05-05T22:07:46.849Z,10.40
2023-05-05T22:10:16.230Z,10.40
2023-05-05T22:12:45.664Z,10.40
2023-05-05T22:15:14.926Z,10.40
2023-05-05T22:17:44.198Z,10.30
2023-05-05T22:20:13.961Z,10.40
2023-05-05T22:22:43.184Z,10.30
2023-05-05T22:25:14.129Z,10.20
2023-05-05T22:27:43.409Z,10.10
2023-05-05T22:30:13.874Z,10.10
2023-05-05T22:32:43.691Z,9.90
2023-05-05T22:35:13.397Z,10.00
2023-05-05T22:37:42.697Z,9.90
2023-05-05T22:40:14.358Z,9.90
2023-05-05T22:42:43.751Z,9.90
2023-05-05T22:45:13.561Z,9.80
2023-05-05T22:47:42.944Z,9.70
2023-05-05T22:50:12.786Z,9.70
2023-05-05T22:52:41.938Z,9.70
2023-05-05T22:55:13.044Z,9.80
2023-05-05T22:57:44.039Z,9.70
2023-05-05T23:00:14.933Z,9.60
2023-05-05T23:02:44.177Z,9.50
2023-05-05T23:05:13.327Z,9.50
2023-05-05T23:07:42.604Z,9.40
2023-05-05T23:10:12.547Z,9.40
2023-05-05T23:12:43.281Z,9.40
2023-05-05T23:15:13.570Z,9.40
2023-05-05T23:17:42.790Z,9.40
2023-05-05T23:20:13.426Z,9.30
2023-05-05T23:22:43.640Z,9.30
2023-05-05T23:25:12.981Z,9.20
2023-05-05T23:27:44.216Z,9.20
2023-05-05T23:30:14.465Z,9.10
2023-05-05T23:32:45.181Z,9.00
2023-05-05T23:35:14.628Z,9.00
2023-05-05T23:37:43.898Z,9.00
2023-05-05T23:40:13.416Z,8.90
2023-05-05T23:42:44.057Z,8.80
2023-05-05T23:45:13.564Z,8.80
2023-05-05T23:47:44.159Z,8.80
2023-05-05T23:50:13.836Z,8.80
2023-05-05T23:52:43.177Z,8.80
2023-05-05T23:55:12.357Z,8.70
2023-05-05T23:57:41.586Z,8.60
